Stuttgart, Kansas
Current Conditions -  °F | °C
As of 4:53 AM on Friday 19 Dec 2014 (Local Time) from KHLC Reporting Station
Overcast Overcast  
Wind Chill: 33°   Ceiling: 800
Heat Index: 33°   Visibility: 8mi
Dew Point: 30°   Wind: 0mph
Humidity: 89%   Direction: NA
Pressure: 30.14"   Gusts: NA
Location:  39.8°N, 99.45°W
Report Text: KHLC 191053Z AUTO 00000KT 8SM OVC008 01/M01 A3014 RMK AO2 SLP225 T00061011
Loading
Personal Weather Stations






























Interactive Weather Map New forecast layout! Learn more

10-Day Weather Forecast

Advertisements
Track Severe Weather on mobile